This is the latest recevied weather packets stored in our database for station/object DL7MAP-13. If no packets are shown the sender has not sent any weather packets the latest 10 day(s).
| Time | Temp. | Humidity | Pressure | Rain* | Wind** | Luminosity | Snow |
|---|---|---|---|---|---|---|---|
| 1777918387 | 20.56° C | 57% | 1006.3 hPa | - | - | - | - |
| 1777917487 | 21.11° C | 55% | 1006 hPa | - | - | - | - |
| 1777916587 | 21.67° C | 54% | 1005.7 hPa | - | - | - | - |
| 1777915687 | 21.67° C | 53% | 1006.4 hPa | - | - | - | - |
| 1777914787 | 22.22° C | 51% | 1006.1 hPa | - | - | - | - |
| 1777913887 | 22.78° C | 50% | 1006.2 hPa | - | - | - | - |
| 1777912987 | 23.33° C | 50% | 1006.2 hPa | - | - | - | - |
| 1777912087 | 23.33° C | 49% | 1006.1 hPa | - | - | - | - |
| 1777911187 | 23.33° C | 50% | 1006.5 hPa | - | - | - | - |
| 1777910287 | 23.33° C | 49% | 1006.5 hPa | - | - | - | - |
| 1777909387 | 23.33° C | 48% | 1004.4 hPa | - | - | - | - |
| 1777908487 | 23.33° C | 46% | 1008.2 hPa | - | - | - | - |
| 1777907587 | 24.44° C | 48% | 1007.8 hPa | - | - | - | - |
| 1777906687 | 22.78° C | 51% | 1007.3 hPa | - | - | - | - |
| 1777905787 | 22.78° C | 52% | 1006.1 hPa | - | - | - | - |
| 1777904887 | 23.33° C | 50% | 1006.5 hPa | - | - | - | - |
| 1777903987 | 23.89° C | 48% | 1007.1 hPa | - | - | - | - |
| 1777903087 | 23.33° C | 49% | 1006.8 hPa | - | - | - | - |
| 1777902187 | 23.33° C | 48% | 1007.5 hPa | - | - | - | - |
| 1777901287 | 22.22° C | 50% | 1006.5 hPa | - | - | - | - |
| 1777900387 | 22.22° C | 50% | - | - | - | - | - |
| 1777899487 | 22.22° C | 50% | 1007.5 hPa | - | - | - | - |
| 1777898587 | 22.22° C | 51% | - | - | - | - | - |
| 1777897687 | 21.67° C | 51% | - | - | - | - | - |
| 1777896787 | 22.22° C | 51% | 1006.3 hPa | - | - | - | - |
* Rain since midnight (hover to see other rain measurements)
** Current wind speed in m/s (hover to see current wind gust speed)